createdAt,value
2023-01-19T00:00:07.538Z,0
2023-01-19T00:01:11.361Z,0
2023-01-19T00:02:13.806Z,0
2023-01-19T00:03:17.215Z,0
2023-01-19T00:04:20.345Z,0
2023-01-19T00:05:22.848Z,0
2023-01-19T00:06:26.019Z,0
2023-01-19T00:07:29.675Z,0
2023-01-19T00:08:32.469Z,0
2023-01-19T00:09:35.721Z,0
2023-01-19T00:10:39.052Z,0
2023-01-19T00:11:42.131Z,0
2023-01-19T00:12:45.479Z,0
2023-01-19T00:13:49.280Z,0
2023-01-19T00:14:53.207Z,0
2023-01-19T00:15:56.584Z,0
2023-01-19T00:17:00.384Z,0
2023-01-19T00:18:03.227Z,0
2023-01-19T00:19:06.297Z,0
2023-01-19T00:20:09.521Z,0
2023-01-19T00:21:12.036Z,0
2023-01-19T00:22:15.167Z,0
2023-01-19T00:23:18.299Z,0
2023-01-19T00:24:21.387Z,0
2023-01-19T00:25:25.486Z,0
2023-01-19T00:26:28.179Z,0
2023-01-19T00:27:32.084Z,0
2023-01-19T00:28:35.313Z,0
2023-01-19T00:29:38.489Z,0
2023-01-19T00:30:41.999Z,0
2023-01-19T00:31:45.464Z,0
2023-01-19T00:32:48.961Z,0
2023-01-19T00:33:52.332Z,0
2023-01-19T00:34:56.292Z,0
2023-01-19T00:35:59.316Z,0
2023-01-19T00:37:01.864Z,0
2023-01-19T00:38:04.659Z,0
2023-01-19T00:39:07.698Z,0
2023-01-19T00:40:10.453Z,0
2023-01-19T00:41:13.417Z,0
2023-01-19T00:42:16.659Z,0
2023-01-19T00:43:19.491Z,0
2023-01-19T00:44:22.818Z,0
2023-01-19T00:45:25.859Z,0
2023-01-19T00:46:29.941Z,0
2023-01-19T00:47:32.363Z,0
2023-01-19T00:48:34.918Z,0
2023-01-19T00:49:38.325Z,0
2023-01-19T00:50:41.461Z,0
2023-01-19T00:51:44.719Z,0
2023-01-19T00:52:47.313Z,0
2023-01-19T00:53:50.398Z,0
2023-01-19T00:54:53.159Z,0
2023-01-19T00:55:56.866Z,0
2023-01-19T00:56:58.764Z,0
2023-01-19T00:58:01.771Z,0
2023-01-19T00:59:04.849Z,0
2023-01-19T01:00:08.002Z,0
2023-01-19T01:01:11.560Z,0
2023-01-19T01:02:16.181Z,0
2023-01-19T01:03:21.118Z,0
2023-01-19T01:04:25.229Z,0
2023-01-19T01:05:28.333Z,0
2023-01-19T01:06:30.794Z,0
2023-01-19T01:07:34.227Z,0
2023-01-19T01:08:37.657Z,0
2023-01-19T01:09:41.493Z,0
2023-01-19T01:10:43.917Z,0
2023-01-19T01:11:46.414Z,0
2023-01-19T01:12:53.593Z,0
2023-01-19T01:14:31.483Z,0
2023-01-19T01:15:34.541Z,0
2023-01-19T01:16:38.110Z,0
2023-01-19T01:17:42.254Z,0
2023-01-19T01:18:45.274Z,0
2023-01-19T01:19:47.733Z,0
2023-01-19T01:20:50.872Z,0
2023-01-19T01:21:57.366Z,0
2023-01-19T01:23:00.550Z,0
2023-01-19T01:24:05.877Z,0
2023-01-19T01:25:08.674Z,0
2023-01-19T01:26:11.837Z,0
2023-01-19T01:27:14.298Z,0
2023-01-19T01:28:17.700Z,0
2023-01-19T01:29:21.268Z,0
2023-01-19T01:30:24.938Z,0
2023-01-19T01:31:28.165Z,0
2023-01-19T01:32:32.120Z,0
2023-01-19T01:33:40.351Z,0
2023-01-19T01:34:44.712Z,0
2023-01-19T01:35:47.739Z,0
2023-01-19T01:36:50.564Z,0
2023-01-19T01:37:53.833Z,0
2023-01-19T01:38:56.910Z,0
2023-01-19T01:39:59.677Z,0
2023-01-19T01:41:02.697Z,0
2023-01-19T01:42:05.578Z,0
2023-01-19T01:43:09.262Z,0
2023-01-19T01:44:12.187Z,0
2023-01-19T01:45:15.640Z,0
2023-01-19T01:46:18.484Z,0
2023-01-19T01:47:22.492Z,0
2023-01-19T01:48:25.910Z,0
2023-01-19T01:49:29.746Z,0
2023-01-19T01:50:31.976Z,0
2023-01-19T01:51:35.165Z,0
2023-01-19T01:52:38.037Z,0
2023-01-19T01:53:41.414Z,0
2023-01-19T01:54:44.398Z,0
2023-01-19T01:55:47.118Z,0
2023-01-19T01:56:50.160Z,0
2023-01-19T01:57:54.222Z,0
2023-01-19T01:58:57.592Z,0
2023-01-19T02:00:00.583Z,0
2023-01-19T02:01:03.264Z,0
2023-01-19T02:02:06.765Z,0
2023-01-19T02:03:11.912Z,0
2023-01-19T02:04:15.740Z,0
2023-01-19T02:05:19.502Z,0
2023-01-19T02:06:21.938Z,0
2023-01-19T02:07:25.322Z,0
2023-01-19T02:08:28.779Z,0
2023-01-19T02:09:32.231Z,0
2023-01-19T02:10:34.750Z,0
2023-01-19T02:11:37.296Z,0
2023-01-19T02:12:41.027Z,0
2023-01-19T02:13:43.624Z,0
2023-01-19T02:14:47.129Z,0
2023-01-19T02:15:49.558Z,0
2023-01-19T02:16:53.183Z,0
2023-01-19T02:17:56.962Z,0
2023-01-19T02:19:00.593Z,0
2023-01-19T02:20:03.406Z,0
2023-01-19T02:21:07.542Z,0
2023-01-19T02:22:10.569Z,0
2023-01-19T02:23:13.651Z,0
2023-01-19T02:24:16.862Z,0
2023-01-19T02:25:19.396Z,0
2023-01-19T02:26:23.055Z,0
2023-01-19T02:27:26.520Z,0
2023-01-19T02:28:29.564Z,0
2023-01-19T02:29:32.288Z,0
2023-01-19T02:30:35.637Z,0
2023-01-19T02:31:39.009Z,0
2023-01-19T02:32:42.078Z,0
2023-01-19T02:33:45.192Z,0
2023-01-19T02:34:48.481Z,0
2023-01-19T02:35:51.943Z,0
2023-01-19T02:36:56.015Z,0
2023-01-19T02:37:58.874Z,0
2023-01-19T02:39:01.188Z,0
2023-01-19T02:40:03.654Z,0
2023-01-19T02:41:07.102Z,0
2023-01-19T02:42:10.423Z,0
2023-01-19T02:43:13.709Z,0
2023-01-19T02:44:16.161Z,0
2023-01-19T02:45:19.993Z,0
2023-01-19T02:46:23.214Z,0
2023-01-19T02:47:26.007Z,0
2023-01-19T02:48:29.172Z,0
2023-01-19T02:49:32.562Z,0
2023-01-19T02:50:34.996Z,0
2023-01-19T02:51:38.743Z,0
2023-01-19T02:52:42.178Z,0
2023-01-19T02:53:44.595Z,0
2023-01-19T02:54:47.586Z,0
2023-01-19T02:55:50.925Z,0
2023-01-19T02:56:53.987Z,0
2023-01-19T02:57:57.435Z,0
2023-01-19T02:58:59.878Z,0
2023-01-19T03:00:02.394Z,0
2023-01-19T03:01:05.240Z,0
2023-01-19T03:02:09.000Z,0
2023-01-19T03:03:12.999Z,0
2023-01-19T03:04:16.419Z,0
2023-01-19T03:05:19.778Z,0
2023-01-19T03:06:23.005Z,0
2023-01-19T03:07:26.251Z,0
2023-01-19T03:08:30.141Z,0
2023-01-19T03:09:33.156Z,0
2023-01-19T03:10:36.528Z,0
2023-01-19T03:11:39.270Z,0
2023-01-19T03:12:41.807Z,0
2023-01-19T03:13:45.360Z,0
2023-01-19T03:14:48.515Z,0
2023-01-19T03:15:52.346Z,0
2023-01-19T03:16:56.138Z,0
2023-01-19T03:17:59.533Z,0
2023-01-19T03:19:02.981Z,0
2023-01-19T03:20:06.720Z,0
2023-01-19T03:21:09.839Z,0
2023-01-19T03:22:13.256Z,0
2023-01-19T03:23:17.023Z,0
2023-01-19T03:24:20.729Z,0
2023-01-19T03:25:23.595Z,0
2023-01-19T03:26:25.953Z,0
2023-01-19T03:27:28.400Z,0
2023-01-19T03:28:31.508Z,0
2023-01-19T03:29:34.933Z,0
2023-01-19T03:30:38.216Z,0
2023-01-19T03:31:42.022Z,0
2023-01-19T03:32:44.421Z,0
2023-01-19T03:33:48.086Z,0
2023-01-19T03:34:50.665Z,0
2023-01-19T03:35:53.397Z,0
2023-01-19T03:36:56.559Z,0
2023-01-19T03:37:59.627Z,0
2023-01-19T03:39:03.379Z,0
2023-01-19T03:40:06.985Z,0
2023-01-19T03:41:11.174Z,0
2023-01-19T03:42:14.289Z,0
2023-01-19T03:43:17.157Z,0
2023-01-19T03:44:20.599Z,0
2023-01-19T03:45:23.425Z,0
2023-01-19T03:46:27.221Z,0
2023-01-19T03:47:30.885Z,0
2023-01-19T03:48:34.170Z,0
2023-01-19T03:49:37.512Z,0
2023-01-19T03:50:40.236Z,0
2023-01-19T03:51:42.952Z,0
2023-01-19T03:52:46.047Z,0
2023-01-19T03:53:49.096Z,0
2023-01-19T03:54:52.565Z,0
2023-01-19T03:55:55.983Z,0
2023-01-19T03:56:58.120Z,0
2023-01-19T03:58:01.495Z,0
2023-01-19T03:59:05.007Z,0
2023-01-19T04:00:08.008Z,0
2023-01-19T04:01:10.867Z,0
2023-01-19T04:02:15.487Z,0
2023-01-19T04:03:19.664Z,0
2023-01-19T04:04:22.957Z,0
2023-01-19T04:05:25.833Z,0
2023-01-19T04:06:28.868Z,0
2023-01-19T04:07:32.150Z,0
2023-01-19T04:08:36.298Z,0
2023-01-19T04:09:39.648Z,0
2023-01-19T04:10:43.197Z,0
2023-01-19T04:11:46.944Z,0
2023-01-19T04:12:49.180Z,0
2023-01-19T04:13:52.993Z,0
2023-01-19T04:14:55.918Z,0
2023-01-19T04:15:58.647Z,0
2023-01-19T04:17:02.306Z,0
2023-01-19T04:18:05.130Z,0
2023-01-19T04:19:07.878Z,0
2023-01-19T04:20:11.314Z,0
2023-01-19T04:21:14.661Z,0
2023-01-19T04:22:17.095Z,0
2023-01-19T04:23:20.438Z,0
2023-01-19T04:24:23.122Z,0
2023-01-19T04:25:26.275Z,0
2023-01-19T04:26:30.025Z,0
2023-01-19T04:27:33.455Z,0
2023-01-19T04:28:36.265Z,0
2023-01-19T04:29:38.870Z,0
2023-01-19T04:30:41.589Z,0
2023-01-19T04:31:45.307Z,0
2023-01-19T04:32:48.387Z,0
2023-01-19T04:33:51.409Z,0
2023-01-19T04:34:54.481Z,0
2023-01-19T04:35:57.546Z,0
2023-01-19T04:37:00.877Z,0
2023-01-19T04:38:03.959Z,0
2023-01-19T04:39:07.047Z,0
2023-01-19T04:40:10.417Z,0
2023-01-19T04:41:13.824Z,0
2023-01-19T04:42:16.984Z,0
2023-01-19T04:43:20.882Z,0
2023-01-19T04:44:23.704Z,0
2023-01-19T04:45:27.056Z,0
2023-01-19T04:46:30.144Z,0
2023-01-19T04:47:33.090Z,0
2023-01-19T04:48:36.899Z,0
2023-01-19T04:49:43.104Z,0
2023-01-19T04:50:46.575Z,0
2023-01-19T04:51:49.752Z,0
2023-01-19T04:52:52.753Z,0
2023-01-19T04:53:55.742Z,0
2023-01-19T04:54:59.139Z,0
2023-01-19T04:56:02.829Z,0
2023-01-19T04:57:05.535Z,0
2023-01-19T04:58:09.421Z,0
2023-01-19T04:59:13.206Z,0
2023-01-19T05:00:16.541Z,0
2023-01-19T05:01:19.585Z,0
2023-01-19T05:02:24.078Z,0
2023-01-19T05:03:27.170Z,0
2023-01-19T05:04:30.284Z,0
2023-01-19T05:05:33.319Z,0
2023-01-19T05:06:36.711Z,0
2023-01-19T05:07:39.463Z,0
2023-01-19T05:08:43.911Z,0
2023-01-19T05:09:48.118Z,0
2023-01-19T05:10:50.983Z,0
2023-01-19T05:11:54.473Z,0
2023-01-19T05:12:58.189Z,0
2023-01-19T05:14:04.370Z,0
2023-01-19T05:15:07.866Z,0
2023-01-19T05:16:11.075Z,0
2023-01-19T05:17:14.246Z,0
2023-01-19T05:18:17.070Z,0
2023-01-19T05:19:19.857Z,0
2023-01-19T05:20:22.299Z,0
2023-01-19T05:21:25.303Z,0
2023-01-19T05:22:28.771Z,0
2023-01-19T05:23:32.167Z,0
2023-01-19T05:24:35.377Z,0
2023-01-19T05:25:38.682Z,0
2023-01-19T05:26:42.074Z,0
2023-01-19T05:27:45.787Z,0
2023-01-19T05:28:49.171Z,0
2023-01-19T05:29:53.108Z,0
2023-01-19T05:30:56.294Z,0
2023-01-19T05:32:00.002Z,0
2023-01-19T05:33:03.867Z,0
2023-01-19T05:34:07.067Z,0
2023-01-19T05:35:08.675Z,0
2023-01-19T05:36:12.092Z,0
2023-01-19T05:37:15.439Z,0
2023-01-19T05:38:20.935Z,0
2023-01-19T05:39:38.994Z,0
2023-01-19T05:40:42.291Z,0
2023-01-19T05:41:45.001Z,0
2023-01-19T05:42:48.730Z,0
2023-01-19T05:43:52.127Z,0
2023-01-19T05:44:55.517Z,0
2023-01-19T05:45:59.732Z,0
2023-01-19T05:47:02.771Z,0
2023-01-19T05:48:05.774Z,0
2023-01-19T05:49:11.475Z,0
2023-01-19T05:50:14.673Z,0
2023-01-19T05:51:17.857Z,0
2023-01-19T05:52:20.587Z,0
2023-01-19T05:53:23.189Z,0
2023-01-19T05:54:25.715Z,0
2023-01-19T05:55:28.599Z,0
2023-01-19T05:56:31.755Z,0
2023-01-19T05:57:35.062Z,0
2023-01-19T05:58:38.314Z,0
2023-01-19T05:59:41.151Z,0
2023-01-19T06:00:44.919Z,0
2023-01-19T06:01:48.838Z,0
2023-01-19T06:02:52.644Z,0
2023-01-19T06:03:56.181Z,0
2023-01-19T06:04:58.706Z,0
2023-01-19T06:06:01.723Z,0
2023-01-19T06:07:04.627Z,0
2023-01-19T06:08:07.920Z,0
2023-01-19T06:09:10.975Z,0
2023-01-19T06:10:14.711Z,0
2023-01-19T06:11:17.474Z,0
2023-01-19T06:12:20.827Z,0
2023-01-19T06:13:23.561Z,0
2023-01-19T06:14:26.253Z,0
2023-01-19T06:15:29.722Z,0
2023-01-19T06:16:32.970Z,0
2023-01-19T06:17:37.099Z,0
2023-01-19T06:18:40.608Z,0
2023-01-19T06:19:43.978Z,0
2023-01-19T06:20:48.013Z,0
2023-01-19T06:21:50.875Z,0
2023-01-19T06:22:53.805Z,0
2023-01-19T06:23:56.786Z,0
2023-01-19T06:25:00.131Z,0
2023-01-19T06:26:03.864Z,0
2023-01-19T06:27:06.378Z,0
2023-01-19T06:28:09.445Z,0
2023-01-19T06:29:12.839Z,0
2023-01-19T06:30:16.175Z,0
2023-01-19T06:31:18.945Z,0
2023-01-19T06:32:22.819Z,0
2023-01-19T06:33:26.898Z,0
2023-01-19T06:34:29.983Z,0
2023-01-19T06:35:33.238Z,0
2023-01-19T06:36:36.648Z,0
2023-01-19T06:37:39.738Z,0
2023-01-19T06:38:42.968Z,0
2023-01-19T06:39:46.613Z,0
2023-01-19T06:40:49.992Z,0
2023-01-19T06:41:52.788Z,0
2023-01-19T06:42:55.880Z,0
2023-01-19T06:43:59.679Z,0
2023-01-19T06:45:02.518Z,0
2023-01-19T06:46:05.468Z,4
2023-01-19T06:47:14.730Z,4
2023-01-19T06:48:19.912Z,4
2023-01-19T06:49:23.783Z,4
2023-01-19T06:50:27.455Z,4
2023-01-19T06:51:30.787Z,4
2023-01-19T06:52:34.181Z,4
2023-01-19T06:53:36.696Z,4
2023-01-19T06:54:40.127Z,4
2023-01-19T06:55:43.228Z,4
2023-01-19T06:56:46.902Z,8
2023-01-19T06:57:50.080Z,4
2023-01-19T06:58:52.969Z,8
2023-01-19T06:59:56.017Z,8
2023-01-19T07:00:58.920Z,12
2023-01-19T07:02:25.962Z,12
2023-01-19T07:03:33.177Z,16
2023-01-19T07:04:36.920Z,16
2023-01-19T07:05:40.617Z,16
2023-01-19T07:06:44.337Z,24
2023-01-19T07:07:47.702Z,24
2023-01-19T07:08:50.869Z,24
2023-01-19T07:09:53.898Z,28
2023-01-19T07:11:21.875Z,32
2023-01-19T07:12:35.492Z,44
2023-01-19T07:13:39.056Z,48
2023-01-19T07:14:43.145Z,52
2023-01-19T07:15:46.560Z,56
2023-01-19T07:16:49.961Z,68
2023-01-19T07:17:53.928Z,76
2023-01-19T07:18:57.721Z,84
2023-01-19T07:20:01.199Z,92
2023-01-19T07:21:04.106Z,96
2023-01-19T07:22:07.583Z,96
2023-01-19T07:23:10.581Z,96
2023-01-19T07:24:14.107Z,108
2023-01-19T07:25:17.560Z,116
2023-01-19T07:26:20.667Z,116
2023-01-19T07:27:24.907Z,132
2023-01-19T07:28:28.072Z,152
2023-01-19T07:29:31.846Z,168
2023-01-19T07:30:35.306Z,200
2023-01-19T07:31:39.886Z,236
2023-01-19T07:32:43.667Z,220
2023-01-19T07:33:47.359Z,228
2023-01-19T07:34:50.852Z,232
2023-01-19T07:35:54.400Z,244
2023-01-19T07:36:58.082Z,284
2023-01-19T07:38:01.122Z,276
2023-01-19T07:39:04.765Z,264
2023-01-19T07:40:08.053Z,300
2023-01-19T07:41:11.641Z,356
2023-01-19T07:42:14.990Z,440
2023-01-19T07:43:18.421Z,472
2023-01-19T07:44:21.667Z,416
2023-01-19T07:45:27.159Z,408
2023-01-19T07:46:31.203Z,424
2023-01-19T07:47:33.906Z,436
2023-01-19T07:48:36.413Z,400
2023-01-19T07:49:39.714Z,368
2023-01-19T07:50:43.859Z,424
2023-01-19T07:51:47.978Z,436
2023-01-19T07:52:51.420Z,432
2023-01-19T07:53:54.436Z,472
2023-01-19T07:54:58.139Z,504
2023-01-19T07:56:01.297Z,544
2023-01-19T07:57:04.023Z,556
2023-01-19T07:58:07.105Z,580
2023-01-19T07:59:11.082Z,652
2023-01-19T08:00:14.547Z,708
2023-01-19T08:01:18.094Z,696
2023-01-19T08:02:22.875Z,720
2023-01-19T08:03:26.836Z,744
2023-01-19T08:04:29.333Z,752
2023-01-19T08:05:33.780Z,756
2023-01-19T08:06:37.383Z,828
2023-01-19T08:07:41.352Z,900
2023-01-19T08:08:44.581Z,924
2023-01-19T08:09:47.585Z,976
2023-01-19T08:10:51.132Z,1008
2023-01-19T08:11:54.634Z,976
2023-01-19T08:12:57.709Z,980
2023-01-19T08:14:02.761Z,1120
2023-01-19T08:15:09.882Z,1108
2023-01-19T08:16:13.356Z,1184
2023-01-19T08:17:16.160Z,1344
2023-01-19T08:18:18.881Z,1624
2023-01-19T08:19:22.607Z,1712
2023-01-19T08:20:26.358Z,1956
2023-01-19T08:21:29.445Z,2472
2023-01-19T08:22:32.016Z,2552
2023-01-19T08:23:35.632Z,2752
2023-01-19T08:24:39.071Z,3360
2023-01-19T08:25:42.853Z,3032
2023-01-19T08:26:46.581Z,2912
2023-01-19T08:27:49.859Z,3004
2023-01-19T08:28:53.886Z,3132
2023-01-19T08:29:57.113Z,3348
2023-01-19T08:31:08.045Z,2596
2023-01-19T08:32:28.424Z,2072
2023-01-19T08:33:31.190Z,2004
2023-01-19T08:34:34.563Z,1956
2023-01-19T08:35:38.017Z,2072
2023-01-19T08:36:42.060Z,2184
2023-01-19T08:37:46.138Z,2360
2023-01-19T08:38:50.061Z,2416
2023-01-19T08:39:53.473Z,2724
2023-01-19T08:40:56.877Z,3360
2023-01-19T08:41:59.942Z,3396
2023-01-19T08:43:03.236Z,3104
2023-01-19T08:44:07.674Z,2708
2023-01-19T08:45:11.071Z,2760
2023-01-19T08:46:14.206Z,2672
2023-01-19T08:47:18.002Z,2784
2023-01-19T08:48:21.264Z,2744
2023-01-19T08:49:24.506Z,3200
2023-01-19T08:50:27.722Z,4064
2023-01-19T08:51:31.397Z,4256
2023-01-19T08:52:34.526Z,4280
2023-01-19T08:53:38.200Z,4188
2023-01-19T08:54:42.329Z,3916
2023-01-19T08:55:45.473Z,3552
2023-01-19T08:56:48.848Z,3416
2023-01-19T08:57:52.326Z,3428
2023-01-19T08:59:08.002Z,3328
2023-01-19T09:08:08.402Z,5828
2023-01-19T09:09:12.018Z,4976
2023-01-19T09:10:15.811Z,5500
2023-01-19T09:11:19.305Z,4240
2023-01-19T09:12:23.078Z,4280
2023-01-19T09:13:26.534Z,4412
2023-01-19T09:14:29.886Z,4004
2023-01-19T09:15:33.733Z,4036
2023-01-19T09:16:37.316Z,3988
2023-01-19T09:17:40.395Z,3876
2023-01-19T09:18:43.489Z,3776
2023-01-19T09:19:46.959Z,4144
2023-01-19T09:20:50.047Z,3968
2023-01-19T09:21:53.445Z,3952
2023-01-19T09:22:56.314Z,3928
2023-01-19T09:23:59.444Z,3724
2023-01-19T09:25:02.773Z,3784
2023-01-19T09:26:06.540Z,4052
2023-01-19T09:27:09.468Z,4228
2023-01-19T09:28:12.698Z,4516
2023-01-19T09:29:15.795Z,4232
2023-01-19T09:30:18.917Z,4204
2023-01-19T09:31:23.119Z,3992
2023-01-19T09:32:27.601Z,4108
2023-01-19T09:33:30.974Z,4180
2023-01-19T09:34:35.018Z,3736
2023-01-19T09:35:38.737Z,3812
2023-01-19T09:36:42.148Z,4064
2023-01-19T09:37:45.490Z,5024
2023-01-19T09:38:49.746Z,5204
2023-01-19T09:39:52.631Z,4432
2023-01-19T09:40:56.923Z,4444
2023-01-19T09:42:00.877Z,3912
2023-01-19T09:43:04.704Z,3784
2023-01-19T09:44:08.092Z,4032
2023-01-19T09:45:12.195Z,4640
2023-01-19T09:46:16.255Z,5204
2023-01-19T09:47:20.171Z,5460
2023-01-19T09:48:23.607Z,5576
2023-01-19T09:49:26.381Z,5208
2023-01-19T09:50:29.236Z,5516
2023-01-19T09:51:33.433Z,7424
2023-01-19T09:52:36.256Z,9128
2023-01-19T09:53:39.233Z,8836
2023-01-19T09:54:42.965Z,9192
2023-01-19T09:55:45.807Z,10172
2023-01-19T09:56:52.084Z,12020
2023-01-19T09:57:56.154Z,12820
2023-01-19T09:59:00.092Z,15200
2023-01-19T10:00:03.461Z,15320
2023-01-19T10:01:06.741Z,13288
2023-01-19T10:02:10.480Z,29248
2023-01-19T10:03:13.832Z,15628
2023-01-19T10:04:17.033Z,16996
2023-01-19T10:05:20.312Z,26432
2023-01-19T10:06:23.761Z,33600
2023-01-19T10:07:27.386Z,33792
2023-01-19T10:08:31.045Z,43584
2023-01-19T10:09:34.147Z,68000
2023-01-19T10:10:37.180Z,47360
2023-01-19T10:11:51.777Z,24064
2023-01-19T10:12:56.890Z,30528
2023-01-19T10:14:02.664Z,30560
2023-01-19T10:15:05.586Z,51936
2023-01-19T10:16:08.649Z,70880
2023-01-19T10:17:11.420Z,78464
2023-01-19T10:18:15.136Z,75104
2023-01-19T10:19:17.370Z,63968
2023-01-19T10:20:21.021Z,21792
2023-01-19T10:21:24.118Z,15552
2023-01-19T10:22:28.461Z,12944
2023-01-19T10:23:32.473Z,12200
2023-01-19T10:24:36.633Z,10620
2023-01-19T10:25:40.129Z,10428
2023-01-19T10:26:44.535Z,10464
2023-01-19T10:27:47.101Z,10752
2023-01-19T10:28:50.735Z,12256
2023-01-19T10:29:55.249Z,15604
2023-01-19T10:30:59.096Z,18560
2023-01-19T10:32:03.560Z,30688
2023-01-19T10:33:07.074Z,22272
2023-01-19T10:34:10.799Z,23296
2023-01-19T10:35:13.963Z,24672
2023-01-19T10:36:17.592Z,34176
2023-01-19T10:37:20.525Z,66400
2023-01-19T10:38:24.066Z,31040
2023-01-19T10:39:27.967Z,27520
2023-01-19T10:40:31.775Z,27744
2023-01-19T10:41:35.315Z,31904
2023-01-19T10:42:39.591Z,27584
2023-01-19T10:43:43.068Z,28864
2023-01-19T10:44:46.715Z,26880
2023-01-19T10:45:51.056Z,77536
2023-01-19T10:46:54.635Z,74880
2023-01-19T10:47:57.885Z,74720
2023-01-19T10:49:01.607Z,68160
2023-01-19T10:50:04.370Z,63424
2023-01-19T10:51:07.659Z,60096
2023-01-19T10:52:11.350Z,55808
2023-01-19T10:53:14.143Z,58816
2023-01-19T10:54:17.628Z,60032
2023-01-19T10:55:21.141Z,67328
2023-01-19T10:56:24.652Z,70368
2023-01-19T10:57:28.179Z,74272
2023-01-19T10:58:32.031Z,78208
2023-01-19T10:59:34.899Z,84064
2023-01-19T11:00:38.311Z,90880
2023-01-19T11:01:43.395Z,85728
2023-01-19T11:02:48.015Z,66464
2023-01-19T11:03:51.094Z,30080
2023-01-19T11:04:54.691Z,36320
2023-01-19T11:05:58.362Z,39328
2023-01-19T11:07:00.865Z,29504
2023-01-19T11:08:04.243Z,32032
2023-01-19T11:09:07.516Z,26240
2023-01-19T11:10:10.645Z,35904
2023-01-19T11:11:13.484Z,35328
2023-01-19T11:12:16.350Z,33440
2023-01-19T11:13:19.733Z,45184
2023-01-19T11:14:22.853Z,56576
2023-01-19T11:15:26.146Z,65664
2023-01-19T11:16:29.992Z,65632
2023-01-19T11:17:34.363Z,65568
2023-01-19T11:18:38.114Z,62304
2023-01-19T11:19:41.276Z,62016
2023-01-19T11:20:44.049Z,61792
2023-01-19T11:21:47.117Z,64512
2023-01-19T11:22:50.819Z,61472
2023-01-19T11:23:54.808Z,62464
2023-01-19T11:24:57.912Z,63136
2023-01-19T11:26:01.724Z,61696
2023-01-19T11:27:04.845Z,62176
2023-01-19T11:28:08.161Z,58944
2023-01-19T11:29:11.529Z,55520
2023-01-19T11:30:14.621Z,56864
2023-01-19T11:31:18.180Z,48352
2023-01-19T11:32:22.764Z,66368
2023-01-19T11:33:26.548Z,38848
2023-01-19T11:34:29.330Z,33920
2023-01-19T11:35:33.404Z,45728
2023-01-19T11:36:36.838Z,23552
2023-01-19T11:37:39.855Z,30464
2023-01-19T11:38:43.311Z,32512
2023-01-19T11:39:47.087Z,16240
2023-01-19T11:40:50.884Z,11956
2023-01-19T11:41:54.334Z,10124
2023-01-19T11:42:57.693Z,9044
2023-01-19T11:44:01.934Z,9608
2023-01-19T11:45:04.927Z,12900
2023-01-19T11:46:08.088Z,20032
2023-01-19T11:47:11.336Z,22304
2023-01-19T11:48:14.464Z,31200
2023-01-19T11:49:18.023Z,30976
2023-01-19T11:50:21.886Z,55904
2023-01-19T11:51:25.505Z,40224
2023-01-19T11:52:28.855Z,20288
2023-01-19T11:53:31.968Z,13904
2023-01-19T11:54:35.344Z,12664
2023-01-19T11:55:38.073Z,10584
2023-01-19T11:56:41.529Z,11780
2023-01-19T11:57:45.325Z,14056
2023-01-19T11:58:48.714Z,12360
2023-01-19T11:59:52.084Z,10656
2023-01-19T12:00:55.230Z,10824
2023-01-19T12:01:58.826Z,13168
2023-01-19T12:03:02.090Z,14340
2023-01-19T12:04:05.867Z,13160
2023-01-19T12:05:10.086Z,14672
2023-01-19T12:06:13.213Z,13156
2023-01-19T12:07:16.217Z,12984
2023-01-19T12:08:19.387Z,10312
2023-01-19T12:09:23.615Z,10020
2023-01-19T12:10:27.338Z,10364
2023-01-19T12:11:30.702Z,10168
2023-01-19T12:12:34.168Z,8888
2023-01-19T12:13:37.908Z,7744
2023-01-19T12:14:41.187Z,8060
2023-01-19T12:15:43.940Z,8936
2023-01-19T12:16:46.704Z,8780
2023-01-19T12:17:50.457Z,8792
2023-01-19T12:18:53.327Z,8108
2023-01-19T12:19:56.490Z,8628
2023-01-19T12:21:02.909Z,9660
2023-01-19T12:22:07.684Z,9024
2023-01-19T12:23:11.049Z,7132
2023-01-19T12:24:14.061Z,6760
2023-01-19T12:25:17.758Z,6584
2023-01-19T12:26:21.150Z,6796
2023-01-19T12:27:24.883Z,5500
2023-01-19T12:28:28.242Z,5324
2023-01-19T12:29:31.121Z,5508
2023-01-19T12:30:34.591Z,5056
2023-01-19T12:31:38.603Z,4632
2023-01-19T12:32:42.605Z,4492
2023-01-19T12:33:46.308Z,4396
2023-01-19T12:34:50.064Z,4456
2023-01-19T12:35:54.175Z,5036
2023-01-19T12:36:58.005Z,5368
2023-01-19T12:38:01.464Z,5580
2023-01-19T12:39:05.326Z,5516
2023-01-19T12:40:08.143Z,5776
2023-01-19T12:41:10.871Z,6188
2023-01-19T12:42:13.672Z,6116
2023-01-19T12:43:16.771Z,6236
2023-01-19T12:44:20.139Z,7176
2023-01-19T12:45:23.583Z,8060
2023-01-19T12:46:26.996Z,8932
2023-01-19T12:47:31.426Z,11500
2023-01-19T12:48:34.243Z,12364
2023-01-19T12:49:37.351Z,10844
2023-01-19T12:50:40.871Z,10352
2023-01-19T12:51:44.639Z,8804
2023-01-19T12:52:48.474Z,7948
2023-01-19T12:53:51.568Z,6964
2023-01-19T12:54:54.565Z,6112
2023-01-19T12:55:58.374Z,5616
2023-01-19T12:57:02.013Z,6144
2023-01-19T12:58:05.414Z,6836
2023-01-19T12:59:08.856Z,6756
2023-01-19T13:00:12.373Z,7108
2023-01-19T13:01:15.713Z,8088
2023-01-19T13:02:19.875Z,8456
2023-01-19T13:03:23.349Z,8828
2023-01-19T13:04:26.537Z,7856
2023-01-19T13:05:32.296Z,7400
2023-01-19T13:06:36.627Z,6960
2023-01-19T13:07:40.105Z,6652
2023-01-19T13:08:44.266Z,6872
2023-01-19T13:09:47.715Z,6740
2023-01-19T13:10:50.695Z,6500
2023-01-19T13:12:00.591Z,5968
2023-01-19T13:13:04.210Z,6380
2023-01-19T13:14:07.299Z,6880
2023-01-19T13:15:10.352Z,7320
2023-01-19T13:16:13.417Z,8956
2023-01-19T13:17:17.596Z,8844
2023-01-19T13:18:21.260Z,8876
2023-01-19T13:19:24.383Z,8688
2023-01-19T13:20:27.764Z,7936
2023-01-19T13:21:31.788Z,8424
2023-01-19T13:22:35.818Z,9156
2023-01-19T13:23:38.423Z,9560
2023-01-19T13:24:42.303Z,9988
2023-01-19T13:25:45.787Z,9964
2023-01-19T13:26:49.114Z,9956
2023-01-19T13:27:52.187Z,9260
2023-01-19T13:28:55.232Z,8340
2023-01-19T13:29:58.703Z,8220
2023-01-19T13:31:04.850Z,7240
2023-01-19T13:32:08.392Z,7208
2023-01-19T13:33:11.731Z,6996
2023-01-19T13:34:14.834Z,6200
2023-01-19T13:35:17.895Z,5928
2023-01-19T13:36:21.047Z,6180
2023-01-19T13:37:24.462Z,5648
2023-01-19T13:38:27.060Z,5196
2023-01-19T13:39:30.860Z,5184
2023-01-19T13:40:34.953Z,4460
2023-01-19T13:41:38.841Z,3932
2023-01-19T13:42:42.525Z,3860
2023-01-19T13:43:45.620Z,3788
2023-01-19T13:44:49.043Z,3696
2023-01-19T13:45:53.521Z,3860
2023-01-19T13:46:57.051Z,4320
2023-01-19T13:48:00.761Z,4176
2023-01-19T13:49:03.208Z,3716
2023-01-19T13:50:07.076Z,3828
2023-01-19T13:51:09.585Z,3560
2023-01-19T13:52:12.771Z,3444
2023-01-19T13:53:16.352Z,3540
2023-01-19T13:54:19.801Z,3564
2023-01-19T13:55:23.940Z,3456
2023-01-19T13:56:28.156Z,3416
2023-01-19T13:57:31.484Z,3448
2023-01-19T13:58:35.369Z,3444
2023-01-19T13:59:38.820Z,3644
2023-01-19T14:00:42.097Z,3732
2023-01-19T14:01:45.558Z,3708
2023-01-19T14:02:50.915Z,4000
2023-01-19T14:03:54.787Z,3956
2023-01-19T14:04:57.694Z,3732
2023-01-19T14:06:00.867Z,3476
2023-01-19T14:07:03.697Z,2932
2023-01-19T14:08:06.351Z,2796
2023-01-19T14:09:09.948Z,2744
2023-01-19T14:10:13.293Z,2732
2023-01-19T14:11:17.410Z,2308
2023-01-19T14:12:21.128Z,2144
2023-01-19T14:13:24.825Z,1900
2023-01-19T14:14:27.956Z,1676
2023-01-19T14:15:31.721Z,1640
2023-01-19T14:16:35.375Z,1548
2023-01-19T14:17:38.737Z,1468
2023-01-19T14:18:42.099Z,1424
2023-01-19T14:19:45.570Z,1392
2023-01-19T14:20:49.188Z,1448
2023-01-19T14:21:52.343Z,1520
2023-01-19T14:22:55.132Z,1488
2023-01-19T14:23:58.507Z,1388
2023-01-19T14:25:01.687Z,1336
2023-01-19T14:26:05.676Z,1200
2023-01-19T14:27:08.516Z,1092
2023-01-19T14:28:12.321Z,924
2023-01-19T14:29:16.070Z,848
2023-01-19T14:30:19.610Z,792
2023-01-19T14:31:23.656Z,740
2023-01-19T14:32:27.817Z,740
2023-01-19T14:33:31.353Z,728
2023-01-19T14:34:34.748Z,704
2023-01-19T14:35:38.459Z,668
2023-01-19T14:36:41.816Z,652
2023-01-19T14:37:44.903Z,680
2023-01-19T14:38:48.216Z,712
2023-01-19T14:39:51.994Z,768
2023-01-19T14:40:54.677Z,772
2023-01-19T14:41:58.355Z,792
2023-01-19T14:43:02.470Z,868
2023-01-19T14:44:06.349Z,848
2023-01-19T14:45:10.437Z,780
2023-01-19T14:46:13.680Z,772
2023-01-19T14:47:16.908Z,780
2023-01-19T14:48:20.058Z,776
2023-01-19T14:49:23.323Z,720
2023-01-19T14:50:26.153Z,696
2023-01-19T14:51:29.165Z,704
2023-01-19T14:52:32.676Z,700
2023-01-19T14:53:35.663Z,652
2023-01-19T14:54:39.400Z,572
2023-01-19T14:55:43.186Z,544